createdAt,value
2018-02-16T00:02:24.066Z,4.70
2018-02-16T00:04:52.292Z,4.70
2018-02-16T00:07:19.836Z,4.70
2018-02-16T00:09:48.190Z,4.70
2018-02-16T00:12:15.765Z,4.70
2018-02-16T00:14:44.089Z,4.70
2018-02-16T00:17:11.649Z,4.70
2018-02-16T00:19:39.203Z,4.80
2018-02-16T00:22:06.777Z,4.70
2018-02-16T00:24:34.346Z,4.70
2018-02-16T00:27:01.902Z,4.70
2018-02-16T00:29:29.523Z,4.70
2018-02-16T00:31:57.074Z,4.70
2018-02-16T00:34:25.406Z,4.70
2018-02-16T00:36:52.946Z,4.60
2018-02-16T00:39:20.543Z,4.60
2018-02-16T00:41:48.172Z,4.60
2018-02-16T00:44:15.733Z,4.60
2018-02-16T00:46:43.289Z,4.60
2018-02-16T00:49:10.856Z,4.60
2018-02-16T00:51:38.413Z,4.50
2018-02-16T00:54:06.005Z,4.50
2018-02-16T00:56:33.543Z,4.50
2018-02-16T00:59:01.110Z,4.50
2018-02-16T01:01:28.673Z,4.50
2018-02-16T01:03:56.245Z,4.40
2018-02-16T01:06:23.787Z,4.40
2018-02-16T01:08:51.361Z,4.50
2018-02-16T01:11:18.914Z,4.50
2018-02-16T01:13:46.524Z,4.50
2018-02-16T01:16:14.840Z,4.50
2018-02-16T01:18:42.418Z,4.50
2018-02-16T01:21:09.974Z,4.50
2018-02-16T01:23:37.520Z,4.40
2018-02-16T01:26:05.083Z,4.40
2018-02-16T01:28:32.632Z,4.40
2018-02-16T01:31:00.193Z,4.40
2018-02-16T01:33:27.725Z,4.50
2018-02-16T01:35:55.308Z,4.50
2018-02-16T01:38:22.851Z,4.50
2018-02-16T01:40:50.412Z,4.50
2018-02-16T01:43:17.976Z,4.50
2018-02-16T01:45:45.546Z,4.40
2018-02-16T01:48:13.115Z,4.40
2018-02-16T01:50:40.753Z,4.40
2018-02-16T01:53:08.304Z,4.40
2018-02-16T01:55:35.893Z,4.40
2018-02-16T01:58:04.293Z,4.30
2018-02-16T02:00:31.845Z,4.30
2018-02-16T02:02:59.397Z,4.20
2018-02-16T02:05:26.953Z,4.20
2018-02-16T02:07:54.708Z,4.20
2018-02-16T02:10:22.252Z,4.20
2018-02-16T02:12:49.815Z,4.20
2018-02-16T02:15:17.414Z,4.10
2018-02-16T02:17:44.962Z,4.10
2018-02-16T02:20:12.625Z,4.10
2018-02-16T02:22:40.191Z,4.20
2018-02-16T02:25:07.729Z,4.20
2018-02-16T02:27:35.298Z,4.10
2018-02-16T02:30:02.824Z,4.10
2018-02-16T02:32:30.412Z,4.10
2018-02-16T02:34:57.952Z,4.10
2018-02-16T02:37:25.512Z,4.00
2018-02-16T02:39:53.048Z,4.10
2018-02-16T02:42:21.382Z,4.00
2018-02-16T02:44:48.924Z,4.00
2018-02-16T02:47:16.481Z,3.90
2018-02-16T02:49:44.154Z,4.00
2018-02-16T02:52:11.700Z,4.00
2018-02-16T02:54:39.241Z,4.00
2018-02-16T02:57:07.560Z,4.00
2018-02-16T02:59:35.116Z,4.00
2018-02-16T03:02:02.645Z,4.10
2018-02-16T03:04:30.193Z,4.20
2018-02-16T03:06:58.510Z,4.20
2018-02-16T03:09:26.075Z,4.20
2018-02-16T03:11:53.629Z,4.20
2018-02-16T03:14:21.192Z,4.10
2018-02-16T03:16:48.740Z,4.00
2018-02-16T03:19:16.305Z,4.00
2018-02-16T03:21:43.869Z,4.00
2018-02-16T03:24:11.402Z,4.00
2018-02-16T03:26:38.962Z,3.90
2018-02-16T03:29:07.254Z,3.90
2018-02-16T03:31:34.804Z,3.90
2018-02-16T03:34:02.357Z,3.90
2018-02-16T03:36:30.680Z,3.90
2018-02-16T03:38:58.229Z,3.80
2018-02-16T03:41:25.782Z,3.90
2018-02-16T03:43:53.320Z,3.90
2018-02-16T03:46:20.865Z,3.90
2018-02-16T03:48:49.221Z,3.80
2018-02-16T03:51:16.777Z,3.80
2018-02-16T03:53:44.337Z,3.80
2018-02-16T03:56:11.888Z,3.80
2018-02-16T03:58:39.461Z,3.80
2018-02-16T04:01:08.528Z,3.80
2018-02-16T04:03:36.099Z,3.80
2018-02-16T04:06:03.628Z,3.80
2018-02-16T04:08:31.209Z,3.80
2018-02-16T04:10:58.741Z,3.80
2018-02-16T04:13:26.297Z,3.80
2018-02-16T04:15:53.870Z,3.80
2018-02-16T04:18:21.409Z,3.70
2018-02-16T04:20:48.979Z,3.70
2018-02-16T04:23:16.535Z,3.70
2018-02-16T04:25:44.097Z,3.70
2018-02-16T04:28:11.672Z,3.70
2018-02-16T04:30:39.203Z,3.70
2018-02-16T04:33:07.520Z,3.70
2018-02-16T04:35:35.048Z,3.70
2018-02-16T04:38:02.618Z,3.70
2018-02-16T04:40:30.165Z,3.70
2018-02-16T04:42:57.724Z,3.70
2018-02-16T04:45:25.324Z,3.60
2018-02-16T04:47:52.834Z,3.70
2018-02-16T04:50:21.183Z,3.70
2018-02-16T04:52:48.767Z,3.70
2018-02-16T04:55:17.065Z,3.70
2018-02-16T04:57:44.669Z,3.70
2018-02-16T05:00:12.219Z,3.70
2018-02-16T05:02:39.800Z,3.70
2018-02-16T05:05:07.371Z,3.70
2018-02-16T05:07:34.914Z,3.70
2018-02-16T05:10:02.484Z,3.60
2018-02-16T05:12:30.084Z,3.60
2018-02-16T05:14:58.400Z,3.70
2018-02-16T05:17:25.941Z,3.70
2018-02-16T05:19:53.536Z,3.70
2018-02-16T05:22:21.090Z,3.70
2018-02-16T05:24:48.644Z,3.80
2018-02-16T05:27:16.351Z,3.70
2018-02-16T05:29:44.674Z,3.80
2018-02-16T05:32:12.240Z,3.70
2018-02-16T05:34:39.783Z,3.70
2018-02-16T05:37:07.448Z,3.70
2018-02-16T05:39:34.981Z,3.80
2018-02-16T05:42:03.306Z,3.80
2018-02-16T05:44:30.855Z,3.80
2018-02-16T05:46:58.445Z,3.80
2018-02-16T05:49:26.004Z,3.70
2018-02-16T05:51:53.552Z,3.70
2018-02-16T05:54:21.104Z,3.70
2018-02-16T05:56:48.659Z,3.70
2018-02-16T05:59:16.213Z,3.70
2018-02-16T06:01:43.777Z,3.70
2018-02-16T06:04:11.352Z,3.60
2018-02-16T06:06:38.915Z,3.60
2018-02-16T06:09:06.459Z,3.60
2018-02-16T06:11:34.020Z,3.50
2018-02-16T06:14:01.609Z,3.50
2018-02-16T06:16:29.156Z,3.40
2018-02-16T06:18:56.709Z,3.40
2018-02-16T06:21:25.133Z,3.40
2018-02-16T06:23:53.500Z,3.40
2018-02-16T06:26:21.077Z,3.40
2018-02-16T06:28:48.634Z,3.50
2018-02-16T06:31:18.076Z,3.40
2018-02-16T06:33:45.666Z,3.40
2018-02-16T06:36:13.245Z,3.40
2018-02-16T06:38:41.578Z,3.40
2018-02-16T06:41:09.140Z,3.40
2018-02-16T06:43:36.719Z,3.40
2018-02-16T06:46:04.273Z,3.40
2018-02-16T06:48:31.822Z,3.40
2018-02-16T06:50:59.467Z,3.50
2018-02-16T06:53:27.000Z,3.50
2018-02-16T06:55:55.337Z,3.50
2018-02-16T06:58:22.884Z,3.50
2018-02-16T07:00:50.435Z,3.50
2018-02-16T07:03:17.982Z,3.50
2018-02-16T07:05:45.524Z,3.50
2018-02-16T07:08:13.088Z,3.70
2018-02-16T07:10:40.650Z,3.60
2018-02-16T07:13:08.218Z,3.60
2018-02-16T07:15:35.776Z,3.60
2018-02-16T07:18:03.343Z,3.70
2018-02-16T07:20:30.884Z,3.70
2018-02-16T07:22:58.469Z,3.80
2018-02-16T07:25:26.048Z,3.80
2018-02-16T07:27:53.608Z,3.70
2018-02-16T07:30:21.149Z,3.70
2018-02-16T07:32:48.705Z,3.70
2018-02-16T07:35:16.245Z,3.60
2018-02-16T07:37:43.836Z,3.80
2018-02-16T07:40:11.391Z,4.00
2018-02-16T07:42:38.972Z,3.90
2018-02-16T07:45:06.529Z,3.80
2018-02-16T07:47:34.062Z,3.80
2018-02-16T07:50:01.634Z,3.80
2018-02-16T07:52:29.161Z,3.90
2018-02-16T07:54:56.746Z,3.90
2018-02-16T07:57:24.281Z,4.00
2018-02-16T07:59:52.606Z,4.20
2018-02-16T08:02:20.147Z,4.20
2018-02-16T08:04:47.714Z,4.30
2018-02-16T08:07:15.261Z,4.20
2018-02-16T08:09:42.843Z,4.20
2018-02-16T08:12:10.393Z,4.30
2018-02-16T08:14:38.128Z,4.30
2018-02-16T08:17:05.677Z,4.30
2018-02-16T08:19:33.988Z,4.50
2018-02-16T08:22:01.555Z,4.50
2018-02-16T08:24:29.103Z,4.50
2018-02-16T08:26:56.727Z,4.60
2018-02-16T08:29:25.040Z,4.70
2018-02-16T08:31:52.617Z,4.60
2018-02-16T08:34:20.144Z,4.70
2018-02-16T08:36:48.528Z,4.70
2018-02-16T08:39:16.095Z,4.80
2018-02-16T08:41:43.864Z,5.00
2018-02-16T08:44:11.424Z,5.00
2018-02-16T08:46:38.999Z,5.10
2018-02-16T08:49:06.534Z,5.20
2018-02-16T08:51:34.107Z,5.30
2018-02-16T08:54:02.007Z,5.30
2018-02-16T08:56:29.551Z,5.40
2018-02-16T08:58:57.109Z,5.60
2018-02-16T09:01:24.668Z,5.50
2018-02-16T09:03:52.197Z,5.50
2018-02-16T09:06:19.768Z,5.60
2018-02-16T09:08:47.354Z,5.60
2018-02-16T09:11:14.915Z,5.90
2018-02-16T09:13:42.476Z,5.70
2018-02-16T09:16:10.028Z,5.70
2018-02-16T09:18:37.563Z,5.90
2018-02-16T09:21:05.152Z,6.00
2018-02-16T09:23:32.738Z,6.10
2018-02-16T09:26:00.304Z,6.50
2018-02-16T09:28:28.641Z,7.10
2018-02-16T09:30:56.198Z,7.10
2018-02-16T09:33:23.762Z,7.30
2018-02-16T09:35:51.700Z,7.50
2018-02-16T09:38:19.263Z,8.30
2018-02-16T09:40:47.085Z,8.20
2018-02-16T09:43:14.680Z,8.20
2018-02-16T09:45:42.216Z,7.60
2018-02-16T09:48:10.560Z,7.60
2018-02-16T09:50:38.103Z,7.60
2018-02-16T09:53:05.667Z,7.50
2018-02-16T09:55:33.258Z,7.40
2018-02-16T09:58:00.825Z,7.30
2018-02-16T10:00:28.400Z,7.20
2018-02-16T10:02:56.731Z,7.70
2018-02-16T10:05:24.345Z,7.70
2018-02-16T10:07:52.660Z,8.20
2018-02-16T10:10:20.232Z,8.10
2018-02-16T10:12:47.844Z,8.20
2018-02-16T10:15:16.156Z,8.50
2018-02-16T10:17:43.731Z,8.50
2018-02-16T10:20:11.262Z,8.50
2018-02-16T10:22:38.821Z,9.20
2018-02-16T10:25:07.135Z,10.60
2018-02-16T10:27:34.709Z,10.50
2018-02-16T10:30:02.258Z,9.90
2018-02-16T10:32:29.898Z,9.00
2018-02-16T10:34:57.433Z,9.10
2018-02-16T10:37:25.740Z,8.90
2018-02-16T10:39:53.298Z,8.80
2018-02-16T10:42:20.856Z,9.40
2018-02-16T10:44:48.409Z,9.30
2018-02-16T10:47:15.949Z,9.10
2018-02-16T10:49:44.329Z,9.50
2018-02-16T10:52:12.637Z,9.40
2018-02-16T10:54:40.216Z,9.40
2018-02-16T10:57:07.763Z,9.70
2018-02-16T10:59:35.330Z,9.50
2018-02-16T11:02:08.568Z,9.70
2018-02-16T11:04:42.612Z,10.30
2018-02-16T11:07:15.741Z,10.30
2018-02-16T11:09:43.320Z,10.60
2018-02-16T11:12:11.668Z,10.80
2018-02-16T11:14:39.232Z,10.70
2018-02-16T11:17:07.574Z,11.10
2018-02-16T11:19:35.122Z,11.30
2018-02-16T11:22:02.706Z,10.90
2018-02-16T11:24:30.245Z,10.80
2018-02-16T11:26:57.814Z,10.30
2018-02-16T11:29:25.352Z,10.30
2018-02-16T11:31:53.703Z,12.20
2018-02-16T11:34:21.259Z,12.20
2018-02-16T11:36:48.883Z,12.10
2018-02-16T11:39:16.456Z,11.00
2018-02-16T11:41:44.018Z,10.60
2018-02-16T11:44:11.617Z,10.60
2018-02-16T11:46:39.953Z,12.20
2018-02-16T11:49:07.506Z,12.20
2018-02-16T11:51:35.109Z,13.00
2018-02-16T11:54:02.644Z,12.80
2018-02-16T11:56:30.209Z,13.10
2018-02-16T11:58:57.800Z,13.10
2018-02-16T12:01:25.383Z,13.40
2018-02-16T12:03:52.933Z,15.40
2018-02-16T12:06:21.280Z,17.90
2018-02-16T12:08:50.376Z,19.10
2018-02-16T12:11:17.948Z,19.20
2018-02-16T12:13:45.500Z,20.00
2018-02-16T12:16:13.049Z,20.50
2018-02-16T12:18:40.623Z,20.30
2018-02-16T12:21:08.168Z,19.50
2018-02-16T12:23:35.753Z,20.30
2018-02-16T12:26:04.101Z,20.60
2018-02-16T12:28:31.659Z,20.60
2018-02-16T12:30:59.220Z,21.50
2018-02-16T12:33:26.831Z,20.00
2018-02-16T12:35:54.385Z,18.30
2018-02-16T12:38:22.718Z,19.60
2018-02-16T12:40:50.270Z,19.50
2018-02-16T12:43:17.873Z,20.30
2018-02-16T12:45:46.298Z,19.50
2018-02-16T12:48:13.880Z,19.50
2018-02-16T12:50:41.448Z,19.60
2018-02-16T12:53:09.026Z,19.50
2018-02-16T12:55:37.358Z,19.50
2018-02-16T12:58:04.953Z,19.40
2018-02-16T13:00:32.516Z,18.40
2018-02-16T13:03:00.069Z,16.50
2018-02-16T13:05:27.632Z,15.00
2018-02-16T13:07:55.175Z,13.50
2018-02-16T13:10:22.746Z,12.50
2018-02-16T13:12:50.308Z,11.50
2018-02-16T13:15:17.872Z,10.90
2018-02-16T13:17:45.424Z,10.50
2018-02-16T13:20:13.018Z,10.10
2018-02-16T13:22:41.334Z,9.60
2018-02-16T13:25:08.899Z,9.60
2018-02-16T13:27:36.453Z,9.30
2018-02-16T13:30:04.098Z,9.00
2018-02-16T13:32:31.679Z,8.90
2018-02-16T13:34:59.240Z,8.60
2018-02-16T13:37:26.819Z,8.40
2018-02-16T13:39:54.360Z,8.30
2018-02-16T13:42:21.932Z,8.40
2018-02-16T13:44:49.497Z,8.40
2018-02-16T13:47:17.067Z,8.40
2018-02-16T13:49:44.619Z,8.30
2018-02-16T13:52:12.199Z,8.30
2018-02-16T13:54:39.733Z,8.20
2018-02-16T13:57:07.317Z,8.10
2018-02-16T13:59:34.876Z,8.10
2018-02-16T14:02:02.415Z,7.90
2018-02-16T14:04:29.976Z,7.90
2018-02-16T14:06:57.515Z,7.90
2018-02-16T14:09:25.099Z,8.00
2018-02-16T14:11:52.648Z,8.00
2018-02-16T14:14:20.196Z,7.80
2018-02-16T14:16:47.919Z,7.70
2018-02-16T14:19:16.574Z,7.40
2018-02-16T14:21:44.260Z,7.40
2018-02-16T14:24:13.366Z,7.40
2018-02-16T14:26:41.313Z,7.40
2018-02-16T14:29:09.661Z,7.50
2018-02-16T14:31:37.445Z,7.40
2018-02-16T14:34:04.992Z,7.60
2018-02-16T14:36:32.575Z,7.40
2018-02-16T14:39:00.116Z,7.40
2018-02-16T14:41:27.689Z,7.30
2018-02-16T14:43:56.016Z,7.30
2018-02-16T14:46:23.581Z,7.60
2018-02-16T14:48:51.165Z,8.10
2018-02-16T14:51:18.714Z,8.90
2018-02-16T14:53:46.298Z,9.00
2018-02-16T14:56:13.845Z,8.80
2018-02-16T14:58:41.394Z,8.80
2018-02-16T15:01:08.974Z,8.60
2018-02-16T15:03:36.520Z,8.40
2018-02-16T15:06:04.077Z,8.30
2018-02-16T15:08:31.654Z,8.40
2018-02-16T15:10:59.240Z,8.30
2018-02-16T15:13:26.840Z,7.80
2018-02-16T15:15:55.158Z,7.60
2018-02-16T15:18:22.716Z,7.60
2018-02-16T15:20:50.276Z,7.20
2018-02-16T15:23:17.855Z,7.40
2018-02-16T15:25:45.448Z,7.90
2018-02-16T15:28:13.779Z,9.20
2018-02-16T15:30:41.616Z,9.20
2018-02-16T15:33:09.180Z,9.00
2018-02-16T15:35:36.764Z,8.50
2018-02-16T15:38:04.307Z,8.00
2018-02-16T15:40:31.846Z,7.60
2018-02-16T15:42:59.422Z,7.40
2018-02-16T15:45:26.982Z,7.20
2018-02-16T15:47:54.575Z,6.90
2018-02-16T15:50:22.151Z,6.60
2018-02-16T15:52:49.701Z,6.40
2018-02-16T15:55:17.264Z,6.30
2018-02-16T15:57:44.850Z,6.40
2018-02-16T16:00:13.179Z,7.00
2018-02-16T16:02:40.760Z,7.00
2018-02-16T16:05:08.312Z,7.40
2018-02-16T16:07:35.886Z,7.40
2018-02-16T16:10:03.436Z,7.20
2018-02-16T16:12:30.989Z,6.90
2018-02-16T16:14:58.555Z,6.70
2018-02-16T16:17:26.251Z,6.60
2018-02-16T16:19:54.584Z,6.10
2018-02-16T16:22:22.136Z,6.10
2018-02-16T16:24:49.706Z,6.00
2018-02-16T16:27:17.284Z,6.10
2018-02-16T16:29:44.862Z,5.90
2018-02-16T16:32:13.189Z,5.60
2018-02-16T16:34:40.759Z,5.60
2018-02-16T16:37:08.299Z,5.50
2018-02-16T16:39:35.883Z,5.50
2018-02-16T16:42:03.463Z,5.30
2018-02-16T16:44:31.030Z,5.20
2018-02-16T16:46:58.572Z,5.20
2018-02-16T16:49:26.121Z,5.10
2018-02-16T16:51:53.688Z,5.10
2018-02-16T16:54:21.259Z,5.00
2018-02-16T16:56:48.819Z,5.00
2018-02-16T16:59:16.363Z,5.00
2018-02-16T17:01:43.945Z,4.90
2018-02-16T17:04:11.509Z,4.90
2018-02-16T17:06:39.071Z,4.80
2018-02-16T17:09:07.507Z,4.70
2018-02-16T17:11:35.073Z,4.60
2018-02-16T17:14:02.664Z,4.60
2018-02-16T17:16:30.212Z,4.50
2018-02-16T17:18:57.788Z,4.40
2018-02-16T17:21:25.346Z,4.30
2018-02-16T17:23:52.935Z,4.30
2018-02-16T17:26:21.270Z,4.00
2018-02-16T17:28:48.837Z,3.90
2018-02-16T17:31:16.408Z,4.00
2018-02-16T17:33:43.975Z,3.90
2018-02-16T17:36:11.549Z,3.70
2018-02-16T17:38:39.874Z,3.40
2018-02-16T17:41:07.701Z,3.40
2018-02-16T17:43:36.063Z,3.40
2018-02-16T17:46:04.424Z,3.50
2018-02-16T17:48:31.974Z,3.40
2018-02-16T17:50:59.554Z,3.40
2018-02-16T17:53:27.129Z,3.30
2018-02-16T17:55:55.444Z,3.20
2018-02-16T17:58:23.019Z,3.10
2018-02-16T18:00:50.606Z,3.10
2018-02-16T18:03:18.160Z,3.00
2018-02-16T18:05:46.526Z,3.20
2018-02-16T18:08:14.080Z,3.20
2018-02-16T18:10:41.638Z,3.40
2018-02-16T18:13:09.219Z,3.50
2018-02-16T18:15:37.566Z,3.30
2018-02-16T18:18:05.135Z,3.30
2018-02-16T18:20:32.699Z,3.20
2018-02-16T18:23:00.284Z,3.00
2018-02-16T18:25:28.727Z,2.80
2018-02-16T18:27:56.296Z,2.80
2018-02-16T18:30:23.878Z,2.80
2018-02-16T18:32:51.450Z,2.70
2018-02-16T18:35:19.004Z,2.80
2018-02-16T18:37:48.606Z,2.90
2018-02-16T18:40:16.187Z,2.90
2018-02-16T18:42:44.562Z,2.90
2018-02-16T18:45:12.092Z,2.90
2018-02-16T18:47:40.424Z,3.00
2018-02-16T18:50:07.991Z,3.00
2018-02-16T18:52:35.564Z,3.00
2018-02-16T18:55:03.127Z,2.90
2018-02-16T18:57:30.705Z,2.80
2018-02-16T18:59:58.255Z,2.70
2018-02-16T19:02:25.841Z,2.70
2018-02-16T19:04:53.413Z,2.70
2018-02-16T19:07:20.973Z,2.60
2018-02-16T19:09:48.553Z,2.60
2018-02-16T19:12:16.883Z,2.50
2018-02-16T19:14:44.453Z,2.50
2018-02-16T19:17:12.035Z,2.50
2018-02-16T19:19:41.342Z,2.40
2018-02-16T19:22:09.687Z,2.40
2018-02-16T19:24:37.249Z,2.40
2018-02-16T19:27:04.793Z,2.40
2018-02-16T19:29:32.373Z,2.50
2018-02-16T19:31:59.936Z,2.40
2018-02-16T19:34:28.314Z,2.50
2018-02-16T19:36:55.907Z,2.40
2018-02-16T19:39:23.497Z,2.50
2018-02-16T19:41:52.800Z,2.50
2018-02-16T19:44:20.345Z,2.50
2018-02-16T19:46:47.916Z,2.80
2018-02-16T19:49:15.489Z,2.90
2018-02-16T19:51:43.033Z,3.20
2018-02-16T19:54:10.609Z,3.30
2018-02-16T19:56:38.170Z,3.40
2018-02-16T19:59:05.752Z,3.40
2018-02-16T20:01:33.340Z,3.40
2018-02-16T20:04:00.959Z,3.40
2018-02-16T20:06:28.618Z,3.30
2018-02-16T20:08:56.180Z,3.20
2018-02-16T20:11:23.748Z,3.30
2018-02-16T20:13:51.319Z,3.20
2018-02-16T20:16:18.889Z,3.10
2018-02-16T20:18:46.497Z,3.10
2018-02-16T20:21:14.057Z,3.10
2018-02-16T20:23:41.613Z,3.20
2018-02-16T20:26:09.230Z,3.20
2018-02-16T20:28:36.804Z,3.20
2018-02-16T20:31:04.412Z,3.00
2018-02-16T20:33:32.028Z,2.90
2018-02-16T20:36:00.364Z,2.80
2018-02-16T20:38:27.936Z,2.80
2018-02-16T20:40:55.562Z,2.70
2018-02-16T20:43:23.118Z,2.70
2018-02-16T20:45:50.713Z,2.70
2018-02-16T20:48:18.285Z,2.70
2018-02-16T20:50:45.862Z,2.60
2018-02-16T20:53:13.434Z,2.60
2018-02-16T20:55:41.817Z,2.40
2018-02-16T20:58:10.134Z,2.20
2018-02-16T21:00:37.691Z,2.20
2018-02-16T21:03:05.286Z,2.00
2018-02-16T21:05:32.847Z,1.90
2018-02-16T21:08:00.435Z,1.80
2018-02-16T21:10:28.872Z,1.70
2018-02-16T21:12:56.474Z,1.60
2018-02-16T21:15:24.867Z,1.60
2018-02-16T21:17:53.200Z,1.50
2018-02-16T21:20:20.793Z,1.50
2018-02-16T21:22:49.128Z,1.50
2018-02-16T21:25:17.049Z,1.50
2018-02-16T21:27:45.422Z,1.30
2018-02-16T21:30:13.746Z,1.20
2018-02-16T21:32:43.260Z,1.20
2018-02-16T21:35:10.830Z,1.10
2018-02-16T21:37:38.404Z,1.10
2018-02-16T21:40:06.753Z,1.00
2018-02-16T21:42:34.295Z,1.00
2018-02-16T21:45:01.860Z,1.00
2018-02-16T21:47:29.433Z,0.90
2018-02-16T21:49:57.036Z,0.90
2018-02-16T21:52:25.380Z,0.70
2018-02-16T21:54:52.972Z,0.70
2018-02-16T21:57:20.595Z,0.70
2018-02-16T21:59:48.163Z,0.70
2018-02-16T22:02:15.777Z,0.70
2018-02-16T22:04:44.182Z,0.60
2018-02-16T22:07:11.753Z,0.50
2018-02-16T22:09:39.325Z,0.50
2018-02-16T22:12:08.077Z,0.50
2018-02-16T22:14:35.675Z,0.40
2018-02-16T22:17:03.261Z,0.40
2018-02-16T22:19:31.634Z,0.40
2018-02-16T22:21:59.204Z,0.40
2018-02-16T22:24:26.904Z,0.50
2018-02-16T22:26:54.591Z,0.60
2018-02-16T22:29:22.173Z,0.60
2018-02-16T22:31:49.822Z,0.40
2018-02-16T22:34:17.410Z,0.40
2018-02-16T22:36:45.010Z,0.50
2018-02-16T22:39:12.583Z,0.40
2018-02-16T22:41:40.146Z,0.30
2018-02-16T22:44:07.911Z,0.50
2018-02-16T22:46:35.492Z,0.40
2018-02-16T22:49:03.049Z,0.50
2018-02-16T22:51:30.620Z,0.50
2018-02-16T22:53:58.180Z,0.40
2018-02-16T22:56:25.761Z,0.40
2018-02-16T22:58:54.107Z,0.30
2018-02-16T23:01:21.680Z,0.30
2018-02-16T23:03:49.233Z,0.40
2018-02-16T23:06:16.837Z,0.50
2018-02-16T23:08:45.164Z,0.40
2018-02-16T23:11:12.724Z,0.40
2018-02-16T23:13:40.298Z,0.30
2018-02-16T23:16:07.880Z,0.30
2018-02-16T23:18:35.441Z,0.20
2018-02-16T23:21:02.999Z,0.10
2018-02-16T23:23:30.625Z,0.20
2018-02-16T23:25:58.170Z,0.20
2018-02-16T23:28:25.727Z,0.20
2018-02-16T23:30:53.275Z,0.60
2018-02-16T23:33:20.849Z,0.80
2018-02-16T23:35:48.429Z,0.80
2018-02-16T23:38:16.002Z,0.70
2018-02-16T23:40:43.570Z,0.60
2018-02-16T23:43:11.078Z,0.40
2018-02-16T23:45:38.668Z,0.40
2018-02-16T23:48:06.987Z,0.30
2018-02-16T23:50:34.560Z,0.30
2018-02-16T23:53:02.129Z,0.20
2018-02-16T23:55:29.712Z,0.20
2018-02-16T23:57:57.278Z,0.10
